createdAt,value
2022-12-04T00:01:20.691Z,1.90
2022-12-04T00:03:48.629Z,2.00
2022-12-04T00:06:19.713Z,2.00
2022-12-04T00:08:48.797Z,2.00
2022-12-04T00:11:19.062Z,2.00
2022-12-04T00:13:47.159Z,2.00
2022-12-04T00:16:17.255Z,2.00
2022-12-04T00:18:45.683Z,2.00
2022-12-04T00:21:15.471Z,2.00
2022-12-04T00:23:45.438Z,2.00
2022-12-04T00:26:15.323Z,2.10
2022-12-04T00:28:43.907Z,2.10
2022-12-04T00:31:13.833Z,2.20
2022-12-04T00:33:42.470Z,2.20
2022-12-04T00:36:14.261Z,2.20
2022-12-04T00:38:44.580Z,2.20
2022-12-04T00:41:13.954Z,2.10
2022-12-04T00:43:42.036Z,2.20
2022-12-04T00:46:10.264Z,2.10
2022-12-04T00:48:38.320Z,2.10
2022-12-04T00:51:07.608Z,2.20
2022-12-04T00:53:35.743Z,2.10
2022-12-04T00:56:07.219Z,2.10
2022-12-04T00:58:35.329Z,2.10
2022-12-04T01:01:04.469Z,2.10
2022-12-04T01:03:32.704Z,2.20
2022-12-04T01:06:00.807Z,2.20
2022-12-04T01:08:28.783Z,2.30
2022-12-04T01:10:56.730Z,2.30
2022-12-04T01:13:27.006Z,2.30
2022-12-04T01:15:55.008Z,2.40
2022-12-04T01:18:22.946Z,2.40
2022-12-04T01:20:52.904Z,2.40
2022-12-04T01:23:21.817Z,2.40
2022-12-04T01:25:54.222Z,2.40
2022-12-04T01:28:22.707Z,2.30
2022-12-04T01:31:00.998Z,2.30
2022-12-04T01:33:29.358Z,2.40
2022-12-04T01:35:58.921Z,2.40
2022-12-04T01:38:27.478Z,2.40
2022-12-04T01:40:56.477Z,2.40
2022-12-04T01:43:25.252Z,2.40
2022-12-04T01:45:55.427Z,2.40
2022-12-04T01:48:30.729Z,2.40
2022-12-04T01:51:06.335Z,2.40
2022-12-04T01:53:37.648Z,2.40
2022-12-04T01:56:06.734Z,2.40
2022-12-04T01:58:38.890Z,2.40
2022-12-04T02:01:09.410Z,2.30
2022-12-04T02:03:39.666Z,2.30
2022-12-04T02:06:08.045Z,2.30
2022-12-04T02:08:36.989Z,2.30
2022-12-04T02:11:16.728Z,2.30
2022-12-04T02:13:56.349Z,2.40
2022-12-04T02:16:29.655Z,2.40
2022-12-04T02:19:08.754Z,2.40
2022-12-04T02:21:38.836Z,2.40
2022-12-04T02:24:23.962Z,2.40
2022-12-04T02:26:57.203Z,2.40
2022-12-04T02:29:37.030Z,2.40
2022-12-04T02:32:14.207Z,2.40
2022-12-04T02:34:47.217Z,2.40
2022-12-04T02:37:20.055Z,2.40
2022-12-04T02:39:55.425Z,2.50
2022-12-04T02:42:31.652Z,2.40
2022-12-04T02:45:04.236Z,2.40
2022-12-04T02:47:34.359Z,2.40
2022-12-04T02:50:07.042Z,2.50
2022-12-04T02:52:39.048Z,2.50
2022-12-04T02:55:11.333Z,2.50
2022-12-04T02:57:43.890Z,2.50
2022-12-04T03:00:15.064Z,2.50
2022-12-04T03:02:48.337Z,2.50
2022-12-04T03:05:20.467Z,2.50
2022-12-04T03:07:52.893Z,2.50
2022-12-04T03:10:26.157Z,2.50
2022-12-04T03:12:57.827Z,2.50
2022-12-04T03:15:31.159Z,2.50
2022-12-04T03:18:02.536Z,2.40
2022-12-04T03:20:32.311Z,2.50
2022-12-04T03:23:04.376Z,2.50
2022-12-04T03:25:38.608Z,2.50
2022-12-04T03:28:09.538Z,2.50
2022-12-04T03:30:44.274Z,2.50
2022-12-04T03:33:16.417Z,2.50
2022-12-04T03:35:50.505Z,2.40
2022-12-04T03:38:23.338Z,2.40
2022-12-04T03:41:00.818Z,2.40
2022-12-04T03:43:34.510Z,2.50
2022-12-04T03:46:09.189Z,2.40
2022-12-04T03:48:41.988Z,2.40
2022-12-04T03:51:16.177Z,2.50
2022-12-04T03:53:48.870Z,2.40
2022-12-04T03:56:19.911Z,2.50
2022-12-04T03:58:52.078Z,2.50
2022-12-04T04:01:34.065Z,2.50
2022-12-04T04:04:07.476Z,2.50
2022-12-04T04:06:41.676Z,2.50
2022-12-04T04:09:15.672Z,2.40
2022-12-04T04:11:49.680Z,2.40
2022-12-04T04:14:40.080Z,2.40
2022-12-04T04:17:36.458Z,2.40
2022-12-04T04:20:27.479Z,2.30
2022-12-04T04:23:19.273Z,2.30
2022-12-04T04:25:48.561Z,2.30
2022-12-04T04:28:31.316Z,2.20
2022-12-04T04:31:07.098Z,2.20
2022-12-04T04:33:46.349Z,2.20
2022-12-04T04:36:22.687Z,2.20
2022-12-04T04:38:59.906Z,2.20
2022-12-04T04:41:35.239Z,2.20
2022-12-04T04:44:12.886Z,2.20
2022-12-04T04:46:46.913Z,2.20
2022-12-04T04:49:18.376Z,2.20
2022-12-04T04:51:47.112Z,2.20
2022-12-04T04:54:17.635Z,2.20
2022-12-04T04:56:47.614Z,2.20
2022-12-04T04:59:16.123Z,2.20
2022-12-04T05:01:46.861Z,2.10
2022-12-04T05:04:16.506Z,2.10
2022-12-04T05:06:44.420Z,2.10
2022-12-04T05:09:12.312Z,2.10
2022-12-04T05:11:40.209Z,2.20
2022-12-04T05:14:09.468Z,2.20
2022-12-04T05:16:37.753Z,2.20
2022-12-04T05:19:23.241Z,2.30
2022-12-04T05:21:52.513Z,2.30
2022-12-04T05:24:20.422Z,2.30
2022-12-04T05:26:48.320Z,2.30
2022-12-04T05:29:16.199Z,2.30
2022-12-04T05:31:44.261Z,2.20
2022-12-04T05:34:12.205Z,2.20
2022-12-04T05:36:40.157Z,2.20
2022-12-04T05:39:09.395Z,2.20
2022-12-04T05:41:37.292Z,2.30
2022-12-04T05:44:05.248Z,2.30
2022-12-04T05:46:33.212Z,2.20
2022-12-04T05:49:01.221Z,2.30
2022-12-04T05:51:29.138Z,2.20
2022-12-04T05:53:57.071Z,2.30
2022-12-04T05:56:26.399Z,2.30
2022-12-04T05:58:54.353Z,2.30
2022-12-04T06:01:24.641Z,2.40
2022-12-04T06:03:52.657Z,2.40
2022-12-04T06:06:23.032Z,2.40
2022-12-04T06:08:51.638Z,2.40
2022-12-04T06:11:22.621Z,2.40
2022-12-04T06:13:52.179Z,2.40
2022-12-04T06:16:25.689Z,2.40
2022-12-04T06:18:55.125Z,2.40
2022-12-04T06:21:24.807Z,2.40
2022-12-04T06:23:53.206Z,2.40
2022-12-04T06:26:21.804Z,2.40
2022-12-04T06:28:53.350Z,2.40
2022-12-04T06:31:21.524Z,2.40
2022-12-04T06:33:50.070Z,2.40
2022-12-04T06:36:21.033Z,2.50
2022-12-04T06:38:49.613Z,2.40
2022-12-04T06:41:20.294Z,2.50
2022-12-04T06:43:48.558Z,2.40
2022-12-04T06:46:19.912Z,2.40
2022-12-04T06:48:48.117Z,2.50
2022-12-04T06:51:18.037Z,2.40
2022-12-04T06:53:46.704Z,2.50
2022-12-04T06:56:18.069Z,2.50
2022-12-04T06:58:46.405Z,2.50
2022-12-04T07:01:16.070Z,2.50
2022-12-04T07:03:51.071Z,2.60
2022-12-04T07:06:21.788Z,2.50
2022-12-04T07:08:52.522Z,2.60
2022-12-04T07:11:21.430Z,2.60
2022-12-04T07:13:49.698Z,2.60
2022-12-04T07:16:19.568Z,2.60
2022-12-04T07:18:50.329Z,2.60
2022-12-04T07:21:20.941Z,2.60
2022-12-04T07:23:51.308Z,2.60
2022-12-04T07:26:19.967Z,2.60
2022-12-04T07:28:48.294Z,2.60
2022-12-04T07:31:18.200Z,2.60
2022-12-04T07:33:48.465Z,2.60
2022-12-04T07:36:18.136Z,2.70
2022-12-04T07:38:46.149Z,2.60
2022-12-04T07:41:15.456Z,2.60
2022-12-04T07:43:43.642Z,2.60
2022-12-04T07:46:13.650Z,2.70
2022-12-04T07:48:42.132Z,2.60
2022-12-04T07:51:13.198Z,2.60
2022-12-04T07:53:41.958Z,2.60
2022-12-04T07:56:10.985Z,2.60
2022-12-04T07:58:39.362Z,2.60
2022-12-04T08:01:09.142Z,2.50
2022-12-04T08:03:40.851Z,2.50
2022-12-04T08:06:13.174Z,2.50
2022-12-04T08:08:41.188Z,2.60
2022-12-04T08:11:09.734Z,2.60
2022-12-04T08:13:37.833Z,2.60
2022-12-04T08:16:07.441Z,2.60
2022-12-04T08:18:35.761Z,2.60
2022-12-04T08:21:05.713Z,2.60
2022-12-04T08:23:35.177Z,2.60
2022-12-04T08:26:04.078Z,2.60
2022-12-04T08:28:32.971Z,2.70
2022-12-04T08:31:04.758Z,2.70
2022-12-04T08:33:33.200Z,2.70
2022-12-04T08:36:01.495Z,2.70
2022-12-04T08:38:29.373Z,2.70
2022-12-04T08:41:02.196Z,2.80
2022-12-04T08:43:30.497Z,2.80
2022-12-04T08:45:59.474Z,2.80
2022-12-04T08:48:27.803Z,2.80
2022-12-04T08:50:56.553Z,2.80
2022-12-04T08:53:25.278Z,2.90
2022-12-04T08:55:53.821Z,2.90
2022-12-04T08:58:23.204Z,2.90
2022-12-04T09:00:51.223Z,2.90
2022-12-04T09:03:24.762Z,2.90
2022-12-04T09:06:00.498Z,2.90
2022-12-04T09:08:28.838Z,2.80
2022-12-04T09:10:56.756Z,2.80
2022-12-04T09:13:26.055Z,2.70
2022-12-04T09:15:53.999Z,2.70
2022-12-04T09:18:21.973Z,2.70
2022-12-04T09:20:57.140Z,2.80
2022-12-04T09:23:25.067Z,2.80
2022-12-04T09:25:53.082Z,2.80
2022-12-04T09:28:21.612Z,2.70
2022-12-04T09:30:59.524Z,2.70
2022-12-04T09:33:27.570Z,2.70
2022-12-04T09:35:55.957Z,2.70
2022-12-04T09:38:23.980Z,2.80
2022-12-04T09:40:57.381Z,2.80
2022-12-04T09:43:32.182Z,2.80
2022-12-04T09:46:09.085Z,2.60
2022-12-04T09:48:42.018Z,2.50
2022-12-04T09:51:18.767Z,2.50
2022-12-04T09:53:52.231Z,2.50
2022-12-04T09:56:21.729Z,2.60
2022-12-04T09:58:53.978Z,2.70
2022-12-04T10:01:28.801Z,2.80
2022-12-04T10:04:02.649Z,2.90
2022-12-04T10:06:41.406Z,2.90
2022-12-04T10:09:17.751Z,3.00
2022-12-04T10:11:53.843Z,3.00
2022-12-04T10:14:57.005Z,2.90
2022-12-04T10:17:40.531Z,3.00
2022-12-04T10:20:22.701Z,2.90
2022-12-04T10:23:00.156Z,3.00
2022-12-04T10:25:29.279Z,3.00
2022-12-04T10:28:02.063Z,3.00
2022-12-04T10:30:33.322Z,2.90
2022-12-04T10:33:14.455Z,2.90
2022-12-04T10:35:44.701Z,3.00
2022-12-04T10:38:21.835Z,3.00
2022-12-04T10:40:54.356Z,3.10
2022-12-04T10:43:32.680Z,3.00
2022-12-04T10:46:00.630Z,3.00
2022-12-04T10:48:36.128Z,3.00
2022-12-04T10:51:04.332Z,3.00
2022-12-04T10:53:35.794Z,3.00
2022-12-04T10:56:12.396Z,3.10
2022-12-04T10:58:40.354Z,3.10
2022-12-04T11:01:11.668Z,3.00
2022-12-04T11:03:42.347Z,3.00
2022-12-04T11:06:11.487Z,3.00
2022-12-04T11:08:42.158Z,3.00
2022-12-04T11:11:12.843Z,2.90
2022-12-04T11:13:41.429Z,3.00
2022-12-04T11:16:25.286Z,3.00
2022-12-04T11:18:54.588Z,3.00
2022-12-04T11:21:28.573Z,3.00
2022-12-04T11:23:56.817Z,3.00
2022-12-04T11:26:32.335Z,3.00
2022-12-04T11:29:02.299Z,3.10
2022-12-04T11:31:31.496Z,3.10
2022-12-04T11:34:03.643Z,3.10
2022-12-04T11:36:34.565Z,3.10
2022-12-04T11:39:08.365Z,2.90
2022-12-04T11:41:36.325Z,2.80
2022-12-04T11:44:07.148Z,2.90
2022-12-04T11:46:35.728Z,2.80
2022-12-04T11:49:05.068Z,2.80
2022-12-04T11:51:46.552Z,2.80
2022-12-04T11:54:26.699Z,2.70
2022-12-04T11:57:06.961Z,2.80
2022-12-04T11:59:47.750Z,2.80
2022-12-04T12:02:57.898Z,2.80
2022-12-04T12:05:57.327Z,2.90
2022-12-04T12:08:39.146Z,2.90
2022-12-04T12:11:17.489Z,2.90
2022-12-04T12:13:54.366Z,2.90
2022-12-04T12:16:35.558Z,2.90
2022-12-04T12:19:30.132Z,2.90
2022-12-04T12:22:07.443Z,2.90
2022-12-04T12:24:46.870Z,2.90
2022-12-04T12:27:34.025Z,2.90
2022-12-04T12:30:07.579Z,2.90
2022-12-04T12:32:53.989Z,3.00
2022-12-04T12:35:26.892Z,3.00
2022-12-04T12:38:01.128Z,3.00
2022-12-04T12:40:36.116Z,3.00
2022-12-04T12:43:08.535Z,3.00
2022-12-04T12:45:45.256Z,3.00
2022-12-04T12:48:27.042Z,3.00
2022-12-04T12:51:22.250Z,2.90
2022-12-04T12:53:55.644Z,2.90
2022-12-04T12:56:32.371Z,2.90
2022-12-04T12:59:05.885Z,2.90
2022-12-04T13:01:46.271Z,2.80
2022-12-04T13:04:23.295Z,2.80
2022-12-04T13:06:57.258Z,2.80
2022-12-04T13:09:31.808Z,2.70
2022-12-04T13:12:03.008Z,2.70
2022-12-04T13:14:31.093Z,2.70
2022-12-04T13:17:03.054Z,2.70
2022-12-04T13:19:37.093Z,2.60
2022-12-04T13:22:16.951Z,2.60
2022-12-04T13:25:07.186Z,2.60
2022-12-04T13:27:51.437Z,2.60
2022-12-04T13:30:22.580Z,2.60
2022-12-04T13:33:05.865Z,2.70
2022-12-04T13:35:54.224Z,2.70
2022-12-04T13:38:30.903Z,2.60
2022-12-04T13:41:03.254Z,2.70
2022-12-04T13:43:37.921Z,2.70
2022-12-04T13:46:08.382Z,2.70
2022-12-04T13:48:40.594Z,2.70
2022-12-04T13:51:37.329Z,2.60
2022-12-04T13:54:24.566Z,2.60
2022-12-04T13:56:56.525Z,2.60
2022-12-04T13:59:35.963Z,2.60
2022-12-04T14:02:25.137Z,2.60
2022-12-04T14:04:56.804Z,2.60
2022-12-04T14:07:29.113Z,2.60
2022-12-04T14:09:59.667Z,2.60
2022-12-04T14:12:32.044Z,2.50
2022-12-04T14:15:02.992Z,2.50
2022-12-04T14:17:33.096Z,2.50
2022-12-04T14:20:07.843Z,2.50
2022-12-04T14:22:43.705Z,2.50
2022-12-04T14:25:35.232Z,2.50
2022-12-04T14:28:24.122Z,2.50
2022-12-04T14:31:04.743Z,2.50
2022-12-04T14:33:36.922Z,2.50
2022-12-04T14:36:09.034Z,2.60
2022-12-04T14:38:37.648Z,2.60
2022-12-04T14:41:05.724Z,2.50
2022-12-04T14:43:40.096Z,2.50
2022-12-04T14:46:14.755Z,2.60
2022-12-04T14:48:53.524Z,2.50
2022-12-04T14:51:31.205Z,2.60
2022-12-04T14:54:07.298Z,2.60
2022-12-04T14:56:50.825Z,2.60
2022-12-04T14:59:22.189Z,2.50
2022-12-04T15:01:51.820Z,2.50
2022-12-04T15:04:25.003Z,2.50
2022-12-04T15:07:00.017Z,2.50
2022-12-04T15:09:56.035Z,2.50
2022-12-04T15:12:34.917Z,2.50
2022-12-04T15:15:17.352Z,2.40
2022-12-04T15:17:45.390Z,2.40
2022-12-04T15:20:17.891Z,2.50
2022-12-04T15:22:46.716Z,2.50
2022-12-04T15:25:21.132Z,2.50
2022-12-04T15:27:50.595Z,2.50
2022-12-04T15:30:23.531Z,2.50
2022-12-04T15:32:54.038Z,2.50
2022-12-04T15:35:27.887Z,2.50
2022-12-04T15:37:56.728Z,2.50
2022-12-04T15:40:27.336Z,2.50
2022-12-04T15:42:56.205Z,2.60
2022-12-04T15:45:34.265Z,2.50
2022-12-04T15:48:02.786Z,2.60
2022-12-04T15:50:31.838Z,2.60
2022-12-04T15:53:03.737Z,2.60
2022-12-04T15:55:34.569Z,2.60
2022-12-04T15:58:05.854Z,2.70
2022-12-04T16:00:37.877Z,2.60
2022-12-04T16:03:20.021Z,2.60
2022-12-04T16:05:49.094Z,2.70
2022-12-04T16:08:24.935Z,2.70
2022-12-04T16:10:58.797Z,2.70
2022-12-04T16:13:32.429Z,2.70
2022-12-04T16:16:05.368Z,2.70
2022-12-04T16:18:33.628Z,2.70
2022-12-04T16:21:01.708Z,2.70
2022-12-04T16:23:29.705Z,2.60
2022-12-04T16:25:57.781Z,2.70
2022-12-04T16:28:25.840Z,2.70
2022-12-04T16:30:53.816Z,2.70
2022-12-04T16:33:23.142Z,2.60
2022-12-04T16:35:51.160Z,2.60
2022-12-04T16:38:19.239Z,2.60
2022-12-04T16:40:48.454Z,2.60
2022-12-04T16:43:18.194Z,2.60
2022-12-04T16:45:48.980Z,2.60
2022-12-04T16:48:17.011Z,2.60
2022-12-04T16:50:46.822Z,2.60
2022-12-04T16:53:17.765Z,2.70
2022-12-04T16:55:48.252Z,2.70
2022-12-04T16:58:17.483Z,2.70
2022-12-04T17:00:51.003Z,2.70
2022-12-04T17:03:30.009Z,2.70
2022-12-04T17:06:00.324Z,2.70
2022-12-04T17:08:29.680Z,2.70
2022-12-04T17:10:57.744Z,2.70
2022-12-04T17:13:25.756Z,2.60
2022-12-04T17:15:53.848Z,2.60
2022-12-04T17:18:21.892Z,2.60
2022-12-04T17:20:50.358Z,2.60
2022-12-04T17:23:19.661Z,2.60
2022-12-04T17:25:47.615Z,2.60
2022-12-04T17:28:15.715Z,2.60
2022-12-04T17:30:48.409Z,2.60
2022-12-04T17:33:16.421Z,2.60
2022-12-04T17:35:44.820Z,2.60
2022-12-04T17:38:12.977Z,2.70
2022-12-04T17:40:42.244Z,2.70
2022-12-04T17:43:10.193Z,2.70
2022-12-04T17:45:40.945Z,2.70
2022-12-04T17:48:08.938Z,2.60
2022-12-04T17:50:36.926Z,2.60
2022-12-04T17:53:04.875Z,2.60
2022-12-04T17:55:34.728Z,2.70
2022-12-04T17:58:04.163Z,2.60
2022-12-04T18:00:32.305Z,2.60
2022-12-04T18:03:00.663Z,2.60
2022-12-04T18:05:30.039Z,2.70
2022-12-04T18:07:57.995Z,2.70
2022-12-04T18:10:26.000Z,2.70
2022-12-04T18:12:53.940Z,2.70
2022-12-04T18:15:23.240Z,2.70
2022-12-04T18:17:51.159Z,2.70
2022-12-04T18:20:19.080Z,2.70
2022-12-04T18:22:47.057Z,2.70
2022-12-04T18:25:14.975Z,2.70
2022-12-04T18:27:43.039Z,2.70
2022-12-04T18:30:12.099Z,2.70
2022-12-04T18:32:41.428Z,2.80
2022-12-04T18:35:11.474Z,2.70
2022-12-04T18:37:40.115Z,2.80
2022-12-04T18:40:09.403Z,2.80
2022-12-04T18:42:37.756Z,2.80
2022-12-04T18:45:06.642Z,2.80
2022-12-04T18:47:36.483Z,2.80
2022-12-04T18:50:06.698Z,2.80
2022-12-04T18:52:36.835Z,2.80
2022-12-04T18:55:05.196Z,2.80
2022-12-04T18:57:33.204Z,2.80
2022-12-04T19:00:01.161Z,2.80
2022-12-04T19:02:29.125Z,2.80
2022-12-04T19:04:57.157Z,2.70
2022-12-04T19:07:26.379Z,2.80
2022-12-04T19:10:10.449Z,2.80
2022-12-04T19:12:38.932Z,2.80
2022-12-04T19:15:07.818Z,2.80
2022-12-04T19:17:35.746Z,2.80
2022-12-04T19:20:03.725Z,2.90
2022-12-04T19:22:32.952Z,2.90
2022-12-04T19:25:00.896Z,2.90
2022-12-04T19:27:28.898Z,2.90
2022-12-04T19:29:57.091Z,2.90
2022-12-04T19:32:25.803Z,2.90
2022-12-04T19:34:53.877Z,2.80
2022-12-04T19:37:21.911Z,2.80
2022-12-04T19:39:51.174Z,2.80
2022-12-04T19:42:19.174Z,2.90
2022-12-04T19:44:48.895Z,2.80
2022-12-04T19:47:18.849Z,2.80
2022-12-04T19:49:47.492Z,2.80
2022-12-04T19:52:15.855Z,2.80
2022-12-04T19:54:44.392Z,2.80
2022-12-04T19:57:16.204Z,2.80
2022-12-04T19:59:47.795Z,2.80
2022-12-04T20:02:16.483Z,2.80
2022-12-04T20:04:47.516Z,2.80
2022-12-04T20:07:15.465Z,2.80
2022-12-04T20:09:48.760Z,2.80
2022-12-04T20:12:21.223Z,2.90
2022-12-04T20:14:49.307Z,2.80
2022-12-04T20:17:17.515Z,2.80
2022-12-04T20:19:45.469Z,2.80
2022-12-04T20:22:15.550Z,2.80
2022-12-04T20:24:44.038Z,2.90
2022-12-04T20:27:12.178Z,2.90
2022-12-04T20:29:44.838Z,2.90
2022-12-04T20:32:13.381Z,2.90
2022-12-04T20:34:43.771Z,2.80
2022-12-04T20:37:12.139Z,2.80
2022-12-04T20:39:40.218Z,2.80
2022-12-04T20:42:08.157Z,2.90
2022-12-04T20:44:36.110Z,2.90
2022-12-04T20:47:05.518Z,2.90
2022-12-04T20:49:33.600Z,2.80
2022-12-04T20:52:01.611Z,2.90
2022-12-04T20:54:29.743Z,2.90
2022-12-04T20:56:57.920Z,2.90
2022-12-04T20:59:25.875Z,2.90
2022-12-04T21:01:54.698Z,2.80
2022-12-04T21:04:24.080Z,2.80
2022-12-04T21:06:52.143Z,2.80
2022-12-04T21:09:23.045Z,2.80
2022-12-04T21:11:53.358Z,2.80
2022-12-04T21:14:41.065Z,2.90
2022-12-04T21:17:11.724Z,2.90
2022-12-04T21:19:41.207Z,2.90
2022-12-04T21:22:09.338Z,2.90
2022-12-04T21:24:38.617Z,2.90
2022-12-04T21:27:09.080Z,2.90
2022-12-04T21:29:37.488Z,2.90
2022-12-04T21:32:06.648Z,2.90
2022-12-04T21:34:35.044Z,2.90
2022-12-04T21:37:04.527Z,2.90
2022-12-04T21:39:32.585Z,2.90
2022-12-04T21:42:17.993Z,2.90
2022-12-04T21:44:46.100Z,2.90
2022-12-04T21:47:14.111Z,2.90
2022-12-04T21:49:42.087Z,2.90
2022-12-04T21:52:11.534Z,2.90
2022-12-04T21:54:39.527Z,2.90
2022-12-04T21:57:07.567Z,2.90
2022-12-04T21:59:35.574Z,2.90
2022-12-04T22:02:03.778Z,2.90
2022-12-04T22:04:31.776Z,2.90
2022-12-04T22:07:01.052Z,2.80
2022-12-04T22:09:30.487Z,2.80
2022-12-04T22:11:58.435Z,2.90
2022-12-04T22:14:26.621Z,2.90
2022-12-04T22:16:55.252Z,2.90
2022-12-04T22:19:23.451Z,2.90
2022-12-04T22:21:51.427Z,2.90
2022-12-04T22:24:19.470Z,2.90
2022-12-04T22:26:48.707Z,2.90
2022-12-04T22:29:48.631Z,2.90
2022-12-04T22:32:04.684Z,3.00
2022-12-04T22:34:32.825Z,2.90
2022-12-04T22:37:00.799Z,2.90
2022-12-04T22:39:28.749Z,3.00
2022-12-04T22:41:58.094Z,3.00
2022-12-04T22:44:26.157Z,3.00
2022-12-04T22:46:54.146Z,3.00
2022-12-04T22:49:22.306Z,3.00
2022-12-04T22:51:50.218Z,3.00
2022-12-04T22:54:18.160Z,3.00
2022-12-04T22:56:46.124Z,3.00
2022-12-04T22:59:15.615Z,3.00
2022-12-04T23:01:43.602Z,3.00
2022-12-04T23:04:11.544Z,3.00
2022-12-04T23:06:39.542Z,3.00
2022-12-04T23:09:10.047Z,3.00
2022-12-04T23:11:38.493Z,2.90
2022-12-04T23:14:09.081Z,2.90
2022-12-04T23:16:39.441Z,3.00
2022-12-04T23:19:08.736Z,3.00
2022-12-04T23:21:36.751Z,3.00
2022-12-04T23:24:05.076Z,3.00
2022-12-04T23:26:35.066Z,3.00
2022-12-04T23:29:05.318Z,3.00
2022-12-04T23:31:39.870Z,3.00
2022-12-04T23:34:08.594Z,3.10
2022-12-04T23:36:36.538Z,3.10
2022-12-04T23:39:05.090Z,3.10
2022-12-04T23:41:33.142Z,3.10
2022-12-04T23:44:01.075Z,3.10
2022-12-04T23:46:32.375Z,3.10
2022-12-04T23:49:02.219Z,3.00
2022-12-04T23:51:30.982Z,3.00
2022-12-04T23:53:59.213Z,3.00
2022-12-04T23:56:28.802Z,3.00
2022-12-04T23:58:58.298Z,3.00
